Portada
METAR-TAF:

METAR-TAF

Aeroports :

Angulema, França

latitud: 45-43-46N, longitud: 00-13-08E, altitud: 132 m

Observació

L'informe es va fer fa 16 minuts, a les 07:30 UTC
Vent 8 kt del Nord/Nord-Est
Temperatura 1°C
Humitat 75%
Pressió 1028 hPa
Visibilitat 10 km o més
sense núvols per sota de 1500 mi sense presència de cumulonimbus.

METAR: LFBU 220730Z AUTO 03008KT CAVOK 01/M03 Q1028 NOSIG

Hora: 08:46 (07:46 UTC)

Pronòstic

L'informe es va fer fa 2 hores i 46 minuts, a les 05:00 UTC
Pronòstic vàlid del 22 a les 06 UTC al 23 a les 06 UTC
Vent 13 kt del Nord/Nord-Est
Visibilitat 10 km o més
sense núvols per sota de 1500 mi sense presència de cumulonimbus.
Temporalment
l' 22 a les 18 UTC al 22 a les 20 UTC
Vent 12 kt del Nord-Est amb ràfegues de 22 kt
pluja

TAF: LFBU 220500Z 2206/2306 03013KT CAVOK TEMPO 2218/2220 04012G22KT -RA

Observacions i pronòstics meteorològics de més de 4000 aeroports (METAR i TAF).

Les estacions disponibles són els punts grocs i vermells al mapa.

Posi el ratolí al punt desitjat per veure el nom de l'estació.

Feu clic per veure les observacions i els pronòstics meteorològics.

Per canviar el mapa: feu clic els botons verds amb una creu de color negre per apropar; al botó verd amb un guió per allunyar la imatge; o en les fletxes verdes per a mapes adjacents.


METAR-TAF: